Monday, October 20, 2014
04:33 UTC
  |  Log In   |  Register Free
Airport Search:

Raton Municipal/Crews Field Airport
(KRTN)

Raton Municipal/Crews Field Airport Diagram
No Airport Diagram Available

FAA data valid effective September 18, 2014 - November 13, 2014 (unless otherwise noted).

 
 
 
 
 
 
 
 
 
 
 
 
 
 

Current Aviation Weather for Raton Municipal/Crews Field Airport (KRTN)

The most recent METAR observation for KRTN was updated at: 0414
METAR Summary (Translated METAR)
KRTN
200253Z AUTO 02004KT 10SM SCT085 11/04 A3020 RMK AO2 SLP179 T01110039 53016
KTAD
200254Z AUTO 25011KT 10SM CLR 13/04 A3017 RMK AO2 SLP166 T01330044 51015
(32 nm NE from KRTN)
KAXX
200315Z AUTO 00000KT 10SM OVC060 04/03 A3034 RMK AO2 T00420030
(42.5 nm SW from KRTN)
TAF
No TAF information found within 50 nm of KRTN
  Airport Weather Conditions for KRTN

 Current Weather at RTN
52° F
Partly Cloudy
North winds at 4.6 mph
RTN NOAA Radar

Pressure: 30.20 in
Humidity: 61%
Wind: North at 4.6 MPH (4 KT)
Dew Point: 39.0°F
Visibility: 10.00 mi


Airport Weather Forecast for KRTN

Translated METAR and TAF for KRTN
Translated METAR for KRTN (0428 UTC 20 October 2014)
found at http://aviationweather.gov/adds/metars/
 
METAR text: KRTN 200253Z AUTO 02004KT 10SM SCT085 11/04 A3020 RMK AO2 SLP179 T01110039 53016
Conditions at: KRTN (RATON , NM, US) observed 0253 UTC 20 October 2014
Temperature: 11.1°C (52°F)
Dewpoint: 3.9°C (39°F) [RH = 61%]
Pressure (altimeter): 30.20 inches Hg (1022.8 mb)
[Sea-level pressure: 1017.9 mb]
Winds: from the NNE (20 degrees) at 5 MPH (4 knots; 2.1 m/s)
Visibility: 10 or more miles (16+ km)
Ceiling: at least 12,000 feet AGL
Clouds: scattered clouds at 8500 feet AGL
Weather: automated observation with no human augmentation;
there may or may not be significant weather present at this time
Translated TAF for KRTN

There is no translated TAF available for this airport

Find All Airport Services Find A Hotel Find A Rental Car Find A Golf Course Find A Restaurant $100 Hamburger



FBO's on the Field
FBO Company Facility Photos Services Transportation Aviation Fuel Prices: Prices include tax
Catering Weather Repair Courtesy Rental Type 100LL JetA JetA+ MOGAS 8087
 
Pegasus Aviation

This FBO has not yet been rated
FS: Phillips 66
Last Updated: Oct-06
Login to update fuel prices
SS:
Contact Pegasus AviationMore FBO Information
 
Add another FBO Facility Photos Catering Weather Repair Courtesy Rental Type 100LL JetA JetA+ MOGAS 8087
Services Transportation Aviation Fuel Prices: Prices include tax


model-print
model-print
model-print
model-print